Time;durP1;ratioP1;P1;durP2;ratioP2;P2;SDS_P1;SDS_P2;PMS_P1;PMS_P2;Temp;Humidity;BMP_temperature;BMP_pressure;BME280_temperature;BME280_humidity;BME280_pressure;Samples;Min_cycle;Max_cycle;Signal;HPM_P1;HPM_P2
2021/05/14 00:00:39;;;;;;;12.50;11.20;;;13.40;79.30;;;;;;5090636;28;20497;-74
2021/05/14 00:03:05;;;;;;;13.13;11.80;;;13.30;79.50;;;;;;5085721;28;20028;-74
2021/05/14 00:05:34;;;;;;;12.10;10.82;;;13.20;80.30;;;;;;5070900;28;20109;-74
2021/05/14 00:08:00;;;;;;;12.50;11.13;;;13.10;79.70;;;;;;5092510;28;20365;-74
2021/05/14 00:10:25;;;;;;;13.60;11.23;;;13.10;79.80;;;;;;5073528;28;20048;-74
2021/05/14 00:12:52;;;;;;;12.23;11.02;;;13.00;79.80;;;;;;5067234;28;20078;-74
2021/05/14 00:15:18;;;;;;;12.75;11.50;;;13.00;79.90;;;;;;5086840;28;20033;-74
2021/05/14 00:17:44;;;;;;;13.40;11.48;;;13.00;80.00;;;;;;5074496;28;20115;-74
2021/05/14 00:20:11;;;;;;;12.93;11.57;;;13.00;79.90;;;;;;5054493;28;20032;-75
2021/05/14 00:22:38;;;;;;;15.50;12.32;;;13.00;79.90;;;;;;5073037;28;20419;-74
2021/05/14 00:25:08;;;;;;;14.15;12.65;;;13.00;79.90;;;;;;5052074;28;20028;-74
2021/05/14 00:27:34;;;;;;;14.45;12.20;;;12.90;80.00;;;;;;5054627;28;20029;-73
2021/05/14 00:30:00;;;;;;;13.88;12.43;;;12.70;80.20;;;;;;5088433;28;20016;-74
2021/05/14 00:32:26;;;;;;;13.27;11.52;;;12.70;80.50;;;;;;5087334;28;20043;-74
2021/05/14 00:34:51;;;;;;;15.07;12.45;;;12.60;80.50;;;;;;5069963;28;20073;-74
2021/05/14 00:37:17;;;;;;;12.30;11.07;;;12.60;80.60;;;;;;5092135;28;20032;-74
2021/05/14 00:39:46;;;;;;;14.55;13.05;;;12.50;80.70;;;;;;5090411;28;20024;-74
2021/05/14 00:42:12;;;;;;;13.43;12.02;;;12.50;80.80;;;;;;5091935;28;20020;-74
2021/05/14 00:44:45;;;;;;;13.45;11.60;;;12.40;80.90;;;;;;5087348;28;20085;-74
2021/05/14 00:47:11;;;;;;;13.30;12.00;;;12.40;81.00;;;;;;5084004;28;20028;-74
2021/05/14 00:49:39;;;;;;;13.25;11.95;;;12.30;80.90;;;;;;5095213;28;20024;-74
2021/05/14 00:52:05;;;;;;;13.18;11.82;;;12.40;81.00;;;;;;5095781;28;20028;-74
2021/05/14 00:54:31;;;;;;;12.07;10.88;;;12.30;80.90;;;;;;5065499;28;20082;-74
2021/05/14 00:56:58;;;;;;;14.43;12.25;;;12.30;80.90;;;;;;5073348;28;20082;-75
2021/05/14 00:59:25;;;;;;;15.02;12.07;;;12.30;80.90;;;;;;5084284;28;20056;-74
2021/05/14 01:01:50;;;;;;;17.33;14.25;;;12.20;80.80;;;;;;5082083;28;20431;-74
2021/05/14 01:04:17;;;;;;;15.15;13.55;;;12.20;81.00;;;;;;5071965;28;20036;-74
2021/05/14 01:06:42;;;;;;;17.63;13.38;;;12.20;81.40;;;;;;5088418;28;20052;-74
2021/05/14 01:09:09;;;;;;;16.73;13.02;;;12.10;81.40;;;;;;5070827;28;20427;-74
2021/05/14 01:11:34;;;;;;;14.88;12.82;;;12.00;81.30;;;;;;5077814;28;20067;-74
2021/05/14 01:14:00;;;;;;;16.77;11.85;;;12.00;81.40;;;;;;5061803;28;20071;-74
2021/05/14 01:16:27;;;;;;;13.93;12.35;;;12.00;81.50;;;;;;5111236;28;20028;-74
2021/05/14 01:18:54;;;;;;;15.10;12.50;;;11.90;81.50;;;;;;5079122;28;20359;-74
2021/05/14 01:21:20;;;;;;;17.45;13.43;;;11.90;81.40;;;;;;5094811;28;20020;-74
2021/05/14 01:23:46;;;;;;;14.60;13.02;;;11.90;81.60;;;;;;5094623;28;20020;-74
2021/05/14 01:26:15;;;;;;;15.18;12.15;;;11.90;81.70;;;;;;5077140;28;20036;-74
2021/05/14 01:28:42;;;;;;;12.27;11.07;;;11.80;81.60;;;;;;5077508;28;20038;-74
2021/05/14 01:31:08;;;;;;;14.05;11.95;;;11.80;81.50;;;;;;5084340;28;20043;-74
2021/05/14 01:33:34;;;;;;;13.80;11.68;;;11.80;81.40;;;;;;5095348;28;20036;-74
2021/05/14 01:36:02;;;;;;;13.40;11.77;;;11.80;81.30;;;;;;5076819;28;20385;-74
2021/05/14 01:38:28;;;;;;;16.85;12.15;;;11.70;81.20;;;;;;5091657;28;20528;-75
2021/05/14 01:40:53;;;;;;;12.88;11.55;;;11.80;81.20;;;;;;5087097;28;20032;-74
2021/05/14 01:43:19;;;;;;;13.77;11.32;;;11.80;81.10;;;;;;5079883;28;20035;-74
2021/05/14 01:45:46;;;;;;;12.35;11.07;;;11.80;81.10;;;;;;5094080;28;20118;-74
2021/05/14 01:48:11;;;;;;;15.57;11.93;;;11.70;81.10;;;;;;5067410;28;20477;-74
2021/05/14 01:50:37;;;;;;;14.40;11.98;;;11.70;81.10;;;;;;5070692;28;20127;-74
2021/05/14 01:53:03;;;;;;;12.57;11.27;;;11.70;81.10;;;;;;5098803;28;20037;-74
2021/05/14 01:55:29;;;;;;;15.10;11.70;;;11.70;81.10;;;;;;5083090;28;20488;-74
2021/05/14 01:57:54;;;;;;;12.60;11.25;;;11.60;81.10;;;;;;5094683;28;20039;-74
2021/05/14 02:00:21;;;;;;;12.65;11.30;;;11.60;81.30;;;;;;5092422;28;20032;-74
2021/05/14 02:02:47;;;;;;;12.50;11.13;;;11.60;81.30;;;;;;5087883;28;20028;-74
2021/05/14 02:05:13;;;;;;;12.77;10.70;;;11.60;81.40;;;;;;5073781;28;20032;-74
2021/05/14 02:07:38;;;;;;;17.30;11.93;;;11.60;81.50;;;;;;5100144;28;20476;-74
2021/05/14 02:10:05;;;;;;;13.13;11.13;;;11.50;81.50;;;;;;5093182;28;20028;-75
2021/05/14 02:12:31;;;;;;;12.90;11.48;;;11.50;81.60;;;;;;5092932;28;20448;-74
2021/05/14 02:14:56;;;;;;;13.35;11.95;;;11.50;81.70;;;;;;5075770;28;20120;-74
2021/05/14 02:17:22;;;;;;;12.52;11.25;;;11.40;81.80;;;;;;5070956;28;20056;-74
2021/05/14 02:19:47;;;;;;;13.43;11.40;;;11.40;81.90;;;;;;5068839;28;20482;-74
2021/05/14 02:22:14;;;;;;;13.73;12.27;;;11.40;81.60;;;;;;5092043;28;20380;-74
2021/05/14 02:24:39;;;;;;;14.07;12.43;;;11.30;82.00;;;;;;5076354;28;20040;-75
2021/05/14 02:27:05;;;;;;;16.42;11.93;;;11.30;82.10;;;;;;5057856;28;20034;-74
2021/05/14 02:29:34;;;;;;;14.00;12.05;;;11.30;82.30;;;;;;5059742;28;20085;-74
2021/05/14 02:32:05;;;;;;;15.45;12.02;;;11.30;82.40;;;;;;5075739;28;20717;-74
2021/05/14 02:34:31;;;;;;;16.58;13.30;;;11.30;82.40;;;;;;5082291;28;20060;-74
2021/05/14 02:36:58;;;;;;;16.17;13.82;;;11.30;82.50;;;;;;5075519;28;20024;-74
2021/05/14 02:39:23;;;;;;;14.57;12.68;;;11.20;82.60;;;;;;5063904;28;20037;-74
2021/05/14 02:41:49;;;;;;;14.07;12.20;;;11.20;82.80;;;;;;5074987;28;20036;-74
2021/05/14 02:44:16;;;;;;;13.13;11.73;;;11.20;82.70;;;;;;5083351;28;20090;-74
2021/05/14 02:46:42;;;;;;;14.18;12.23;;;11.20;82.80;;;;;;5080483;28;20047;-74
2021/05/14 02:49:09;;;;;;;15.45;12.40;;;11.20;82.90;;;;;;5087189;28;20024;-75
2021/05/14 02:51:35;;;;;;;14.13;11.85;;;11.20;83.10;;;;;;5067150;28;20056;-74
2021/05/14 02:54:00;;;;;;;18.67;13.38;;;11.10;83.10;;;;;;5072385;28;20032;-74
2021/05/14 02:56:30;;;;;;;14.40;11.95;;;11.10;83.10;;;;;;5062882;28;20040;-74
2021/05/14 02:58:56;;;;;;;13.82;11.35;;;11.10;83.10;;;;;;5071769;28;20028;-74
2021/05/14 03:01:23;;;;;;;15.43;12.32;;;11.10;83.10;;;;;;5062601;28;20033;-74
2021/05/14 03:03:49;;;;;;;15.95;12.77;;;11.10;83.00;;;;;;5077752;28;20124;-74
2021/05/14 03:06:14;;;;;;;14.68;12.05;;;11.10;82.90;;;;;;5066230;28;20028;-74
2021/05/14 03:08:40;;;;;;;20.98;12.13;;;11.00;82.70;;;;;;5074076;28;20020;-74
2021/05/14 03:11:06;;;;;;;14.43;12.30;;;11.00;82.80;;;;;;5070499;28;20616;-74
2021/05/14 03:13:32;;;;;;;15.95;13.02;;;11.00;82.90;;;;;;5068348;28;20033;-74
2021/05/14 03:15:58;;;;;;;15.70;13.02;;;11.00;82.90;;;;;;5070065;28;20037;-74
2021/05/14 03:18:24;;;;;;;14.07;12.52;;;10.90;82.90;;;;;;5072538;28;20423;-74
2021/05/14 03:20:50;;;;;;;19.80;14.65;;;10.90;83.00;;;;;;5064055;28;20021;-74
2021/05/14 03:23:16;;;;;;;13.85;12.35;;;10.90;83.10;;;;;;5073024;28;20036;-73
2021/05/14 03:25:42;;;;;;;18.10;13.68;;;10.90;83.10;;;;;;5069791;28;20087;-74
2021/05/14 03:28:07;;;;;;;16.15;13.40;;;10.90;83.70;;;;;;5068007;28;20028;-74
2021/05/14 03:30:33;;;;;;;16.92;13.30;;;10.80;83.10;;;;;;5072314;28;20545;-74
2021/05/14 03:32:59;;;;;;;16.77;14.02;;;10.80;83.30;;;;;;5071213;28;20033;-74
2021/05/14 03:35:25;;;;;;;16.05;13.43;;;10.80;83.50;;;;;;5070334;28;20044;-74
2021/05/14 03:37:51;;;;;;;16.60;13.70;;;10.80;83.60;;;;;;5056551;28;20082;-74
2021/05/14 03:42:46;;;;;;;16.20;13.15;;;10.80;83.80;;;;;;5070342;28;20017;-74
2021/05/14 03:45:12;;;;;;;16.90;13.43;;;10.80;84.60;;;;;;5075570;28;20170;-75
2021/05/14 03:47:38;;;;;;;14.98;13.32;;;10.70;84.00;;;;;;5067510;28;20032;-74
2021/05/14 03:50:05;;;;;;;21.00;12.95;;;10.80;84.10;;;;;;5063915;28;21702;-74
2021/05/14 03:52:32;;;;;;;19.13;12.45;;;10.80;84.10;;;;;;5049789;28;20057;-74
2021/05/14 03:54:59;;;;;;;17.77;13.45;;;10.80;84.10;;;;;;5033998;28;20114;-74
2021/05/14 03:57:25;;;;;;;16.50;13.90;;;10.80;84.10;;;;;;5038797;28;20036;-74
2021/05/14 03:59:50;;;;;;;15.80;12.40;;;10.80;84.10;;;;;;5049908;28;20386;-74
2021/05/14 04:02:16;;;;;;;16.85;12.90;;;10.80;84.10;;;;;;5049099;28;20044;-74
2021/05/14 04:04:42;;;;;;;19.30;12.95;;;10.80;84.20;;;;;;5036315;28;20031;-74
2021/05/14 04:07:07;;;;;;;16.38;12.60;;;10.80;84.20;;;;;;5048700;28;20041;-74
2021/05/14 04:09:36;;;;;;;17.90;13.70;;;10.80;84.30;;;;;;5032634;28;20044;-74
2021/05/14 04:12:14;;;;;;;18.45;13.15;;;10.80;84.50;;;;;;5050182;28;20477;-74
2021/05/14 04:14:40;;;;;;;18.33;12.68;;;10.90;84.60;;;;;;5053150;28;20037;-74
2021/05/14 04:17:07;;;;;;;16.20;12.20;;;10.90;84.60;;;;;;5051870;28;20524;-74
2021/05/14 04:19:33;;;;;;;18.48;13.40;;;10.90;84.60;;;;;;5051182;28;20116;-74
2021/05/14 04:22:00;;;;;;;16.35;12.68;;;11.00;84.60;;;;;;5044017;28;20053;-74
2021/05/14 04:24:27;;;;;;;20.50;11.98;;;11.00;84.60;;;;;;5053446;28;20033;-74
2021/05/14 04:26:57;;;;;;;24.98;11.98;;;11.00;84.70;;;;;;5056024;28;20029;-74
2021/05/14 04:29:23;;;;;;;19.33;12.55;;;11.00;84.90;;;;;;5054303;28;20033;-74
2021/05/14 04:31:49;;;;;;;18.05;12.40;;;11.00;85.00;;;;;;5055747;28;20032;-74
2021/05/14 04:34:16;;;;;;;17.42;11.55;;;11.00;85.10;;;;;;5051508;28;20402;-74
2021/05/14 04:36:42;;;;;;;21.17;13.23;;;11.00;85.20;;;;;;5056010;28;20452;-74
2021/05/14 04:39:10;;;;;;;19.27;12.50;;;11.00;85.30;;;;;;5051323;28;20121;-74
2021/05/14 04:41:36;;;;;;;17.25;11.75;;;11.00;85.40;;;;;;5054579;28;20065;-74
2021/05/14 04:44:02;;;;;;;14.43;11.45;;;11.00;85.40;;;;;;5051580;28;20032;-74
2021/05/14 04:46:28;;;;;;;15.98;11.15;;;11.00;85.30;;;;;;5039774;28;20398;-74
2021/05/14 04:48:54;;;;;;;12.27;9.63;;;11.00;85.30;;;;;;5050057;28;20094;-74
2021/05/14 04:51:20;;;;;;;13.90;9.73;;;11.10;85.30;;;;;;5072553;28;20101;-74
2021/05/14 04:53:47;;;;;;;13.77;9.75;;;11.10;85.30;;;;;;5095337;28;20030;-74
2021/05/14 04:56:14;;;;;;;13.43;10.45;;;11.20;85.30;;;;;;5094773;28;20570;-74
2021/05/14 04:58:44;;;;;;;12.48;9.07;;;11.20;85.30;;;;;;5076614;28;20028;-74
2021/05/14 05:01:12;;;;;;;13.15;9.35;;;11.30;85.40;;;;;;5060978;28;20031;-74
2021/05/14 05:03:38;;;;;;;14.88;10.32;;;11.30;85.30;;;;;;5076577;28;20024;-74
2021/05/14 05:06:04;;;;;;;11.07;9.05;;;11.40;85.30;;;;;;5076947;28;20028;-74
2021/05/14 05:08:30;;;;;;;12.57;8.55;;;11.40;85.30;;;;;;5082603;28;20040;-74
2021/05/14 05:10:55;;;;;;;11.13;8.02;;;11.50;85.20;;;;;;5073363;28;20038;-74
2021/05/14 05:13:21;;;;;;;13.52;9.30;;;11.50;85.20;;;;;;5077584;28;20028;-74
2021/05/14 05:15:47;;;;;;;8.98;8.07;;;11.50;85.10;;;;;;5095542;28;20413;-74
2021/05/14 05:18:12;;;;;;;10.43;7.85;;;11.60;85.10;;;;;;5086759;28;20480;-74
2021/05/14 05:20:38;;;;;;;7.80;7.00;;;11.60;84.90;;;;;;5091937;28;20059;-74
2021/05/14 05:23:05;;;;;;;10.23;8.05;;;11.70;84.80;;;;;;5087403;28;20064;-75
2021/05/14 05:25:31;;;;;;;9.40;7.93;;;11.70;84.80;;;;;;5089871;28;20032;-74
2021/05/14 05:27:56;;;;;;;10.93;7.15;;;11.70;84.80;;;;;;5075200;28;20035;-74
2021/05/14 05:30:24;;;;;;;9.07;7.25;;;11.80;84.70;;;;;;5082277;28;20397;-74
2021/05/14 05:32:50;;;;;;;12.82;7.47;;;11.80;84.30;;;;;;5076670;28;20043;-74
2021/05/14 05:35:16;;;;;;;12.20;7.35;;;11.90;84.10;;;;;;5078231;28;20028;-74
2021/05/14 05:37:41;;;;;;;6.45;5.65;;;11.90;83.90;;;;;;5070468;28;20111;-74
2021/05/14 05:40:08;;;;;;;9.85;7.00;;;11.90;83.50;;;;;;5073822;28;20079;-74
2021/05/14 05:42:34;;;;;;;9.68;6.88;;;12.00;83.20;;;;;;5095368;28;20024;-73
2021/05/14 05:44:59;;;;;;;7.93;6.72;;;12.00;83.10;;;;;;5093845;28;20107;-73
2021/05/14 05:47:25;;;;;;;10.07;7.22;;;12.00;83.10;;;;;;5075791;28;20161;-73
2021/05/14 05:49:51;;;;;;;15.02;7.32;;;12.10;82.90;;;;;;5080909;28;20476;-74
2021/05/14 05:52:17;;;;;;;10.10;6.93;;;12.10;82.80;;;;;;5094681;28;20051;-73
2021/05/14 05:54:42;;;;;;;8.55;7.38;;;12.10;82.50;;;;;;5074742;28;20036;-73
2021/05/14 05:57:08;;;;;;;7.90;6.65;;;12.20;82.40;;;;;;5072587;28;20082;-74
2021/05/14 05:59:35;;;;;;;8.20;7.07;;;12.30;82.40;;;;;;5063869;28;20040;-73
2021/05/14 06:02:02;;;;;;;10.90;7.05;;;12.30;82.00;;;;;;5044493;28;20039;-73
2021/05/14 06:04:27;;;;;;;8.63;7.10;;;12.40;81.80;;;;;;5093639;28;20023;-73
2021/05/14 06:06:53;;;;;;;10.43;8.13;;;12.40;81.70;;;;;;5075531;28;20116;-73
2021/05/14 06:09:19;;;;;;;9.68;6.53;;;12.50;81.70;;;;;;5095004;28;20036;-73
2021/05/14 06:11:44;;;;;;;6.70;5.55;;;12.60;81.40;;;;;;5071518;28;20123;-74
2021/05/14 06:14:10;;;;;;;10.82;6.63;;;12.60;81.00;;;;;;5093679;28;20055;-73
2021/05/14 06:16:35;;;;;;;7.50;5.72;;;12.60;80.50;;;;;;5062951;28;20082;-74
2021/05/14 06:19:27;;;;;;;9.00;6.72;;;12.60;79.90;;;;;;5076744;28;20016;-74
2021/05/14 06:21:53;;;;;;;9.52;6.65;;;12.70;79.90;;;;;;5072699;28;20388;-74
2021/05/14 06:24:19;;;;;;;9.70;6.40;;;12.70;79.10;;;;;;5068691;28;20059;-74
2021/05/14 06:26:46;;;;;;;10.77;6.18;;;12.70;78.80;;;;;;5073626;28;20070;-73
2021/05/14 06:29:13;;;;;;;9.23;6.22;;;12.70;78.80;;;;;;5094447;28;20484;-74
2021/05/14 06:31:39;;;;;;;13.93;7.45;;;12.70;78.90;;;;;;5068562;28;20107;-73
2021/05/14 06:34:04;;;;;;;8.90;7.32;;;12.80;79.50;;;;;;5070147;28;20132;-73
2021/05/14 06:36:30;;;;;;;9.15;6.57;;;13.00;78.50;;;;;;5075892;28;20032;-74
2021/05/14 06:38:56;;;;;;;9.73;6.45;;;13.00;77.70;;;;;;5093349;28;20357;-74
2021/05/14 06:41:22;;;;;;;8.95;6.15;;;13.10;78.00;;;;;;5063231;28;20031;-73
2021/05/14 06:43:48;;;;;;;10.45;6.40;;;13.20;77.10;;;;;;5061662;28;20040;-73
2021/05/14 06:46:13;;;;;;;11.38;6.38;;;13.40;76.80;;;;;;5083955;28;20035;-73
2021/05/14 06:48:43;;;;;;;10.68;6.70;;;13.50;75.70;;;;;;5053613;28;20040;-73
2021/05/14 06:51:09;;;;;;;11.63;8.40;;;13.60;75.50;;;;;;5084996;28;20060;-74
2021/05/14 06:53:35;;;;;;;15.10;7.47;;;13.60;74.90;;;;;;5082977;28;20117;-73
2021/05/14 06:56:01;;;;;;;10.43;7.70;;;13.80;74.80;;;;;;5091537;28;20043;-74
2021/05/14 06:58:27;;;;;;;13.73;9.13;;;13.80;74.30;;;;;;5086901;28;20028;-74
2021/05/14 07:00:53;;;;;;;14.05;10.40;;;13.80;74.40;;;;;;5087910;28;20109;-74
2021/05/14 07:03:18;;;;;;;11.82;9.75;;;13.80;74.30;;;;;;5086128;28;20028;-74
2021/05/14 07:05:44;;;;;;;11.75;9.55;;;13.80;74.60;;;;;;5050745;28;20129;-74
2021/05/14 07:08:10;;;;;;;12.43;10.80;;;13.80;74.70;;;;;;5096913;28;20032;-73
2021/05/14 07:10:35;;;;;;;12.40;9.25;;;13.80;74.80;;;;;;5073756;28;20078;-73
2021/05/14 07:13:01;;;;;;;13.40;9.88;;;13.90;74.60;;;;;;5079988;28;20085;-73
2021/05/14 07:15:26;;;;;;;15.55;9.50;;;13.90;74.10;;;;;;5091317;28;20489;-74
2021/05/14 07:17:53;;;;;;;12.73;9.02;;;14.00;74.10;;;;;;5092810;28;20044;-73
2021/05/14 07:20:20;;;;;;;12.68;8.95;;;14.10;74.00;;;;;;5078027;28;20089;-73
2021/05/14 07:22:46;;;;;;;20.00;9.25;;;14.20;74.30;;;;;;5074655;28;20023;-73
2021/05/14 07:25:13;;;;;;;12.85;8.70;;;14.30;73.40;;;;;;5064432;28;20382;-74
2021/05/14 07:27:39;;;;;;;11.00;8.90;;;14.40;72.90;;;;;;5071570;28;20495;-74
2021/05/14 07:30:07;;;;;;;10.20;8.00;;;14.40;72.80;;;;;;5079087;28;20063;-74
2021/05/14 07:32:32;;;;;;;10.48;8.65;;;14.60;72.60;;;;;;5072677;28;20028;-74
2021/05/14 07:34:58;;;;;;;11.98;8.65;;;14.70;72.50;;;;;;5072567;28;20024;-74
2021/05/14 07:37:24;;;;;;;11.85;7.22;;;14.80;71.60;;;;;;5092353;28;20032;-75
2021/05/14 07:39:49;;;;;;;10.75;8.77;;;14.90;71.50;;;;;;5052769;28;20116;-75
2021/05/14 07:42:15;;;;;;;13.95;9.02;;;15.10;71.20;;;;;;5084228;28;20039;-75
2021/05/14 07:44:43;;;;;;;11.25;8.18;;;15.30;70.60;;;;;;5074274;28;20024;-75
2021/05/14 07:47:08;;;;;;;10.50;8.68;;;15.40;70.30;;;;;;5090570;28;20043;-75
2021/05/14 07:49:34;;;;;;;9.88;7.97;;;15.50;69.90;;;;;;5073938;28;20024;-75
2021/05/14 07:52:00;;;;;;;13.18;9.00;;;15.60;69.60;;;;;;5086662;28;20128;-75
2021/05/14 07:54:26;;;;;;;11.18;8.25;;;15.80;69.00;;;;;;5091584;28;20055;-75
2021/05/14 07:56:51;;;;;;;11.95;8.32;;;15.80;68.30;;;;;;5092333;28;20046;-75
2021/05/14 07:59:17;;;;;;;9.95;8.18;;;15.90;68.10;;;;;;5057173;28;20365;-75
2021/05/14 08:01:42;;;;;;;11.70;7.90;;;16.00;67.90;;;;;;5092100;28;20485;-75
2021/05/14 08:04:08;;;;;;;12.43;7.85;;;16.20;67.50;;;;;;5093763;28;20024;-75
2021/05/14 08:06:34;;;;;;;15.73;8.73;;;16.30;67.30;;;;;;5096587;28;20433;-75
2021/05/14 08:09:03;;;;;;;9.90;7.75;;;16.50;66.90;;;;;;5091445;28;20107;-75
2021/05/14 08:11:29;;;;;;;12.18;7.47;;;16.70;65.80;;;;;;5092244;28;20048;-75
2021/05/14 08:13:55;;;;;;;15.55;7.82;;;16.90;64.70;;;;;;5066893;28;20087;-75
2021/05/14 08:16:20;;;;;;;10.93;7.90;;;17.00;64.30;;;;;;5079360;28;20028;-75
2021/05/14 08:18:46;;;;;;;10.75;7.82;;;17.20;64.10;;;;;;5083381;28;20031;-75
2021/05/14 08:21:12;;;;;;;9.05;8.07;;;17.30;63.50;;;;;;5079834;28;20052;-75
2021/05/14 08:23:38;;;;;;;9.07;7.90;;;17.30;63.20;;;;;;5064353;28;20095;-75
2021/05/14 08:26:03;;;;;;;12.95;8.98;;;17.30;63.10;;;;;;5066871;28;20123;-74
2021/05/14 08:28:29;;;;;;;11.52;8.35;;;17.40;62.70;;;;;;5081310;28;20120;-74
2021/05/14 08:30:55;;;;;;;12.25;8.15;;;17.50;62.60;;;;;;5080426;28;20107;-74
2021/05/14 08:33:20;;;;;;;13.50;6.90;;;17.80;62.30;;;;;;5063803;28;20753;-75
2021/05/14 08:35:46;;;;;;;9.30;6.47;;;17.90;60.60;;;;;;5092132;28;20024;-74
2021/05/14 08:38:12;;;;;;;8.23;5.57;;;17.90;60.30;;;;;;5092412;28;20123;-74
2021/05/14 08:40:39;;;;;;;10.10;6.10;;;17.90;60.30;;;;;;5092714;28;20036;-74
2021/05/14 08:43:05;;;;;;;9.65;6.45;;;18.00;60.50;;;;;;5087956;28;20027;-74
2021/05/14 08:45:32;;;;;;;11.45;7.15;;;18.10;60.30;;;;;;5068907;28;20032;-75
2021/05/14 08:47:58;;;;;;;8.35;6.82;;;18.20;60.00;;;;;;5080068;28;20148;-75
2021/05/14 08:50:28;;;;;;;9.02;6.50;;;18.30;59.50;;;;;;5088055;28;20072;-75
2021/05/14 08:52:54;;;;;;;8.52;6.05;;;18.50;59.10;;;;;;5064068;28;20036;-74
2021/05/14 08:55:23;;;;;;;7.75;5.22;;;18.60;57.80;;;;;;5091018;28;20070;-85
2021/05/14 08:57:51;;;;;;;7.95;5.20;;;18.70;57.90;;;;;;5092892;28;20081;-84
2021/05/14 09:00:17;;;;;;;10.07;5.47;;;18.80;57.40;;;;;;5092104;28;20024;-83
2021/05/14 09:02:42;;;;;;;14.27;5.32;;;18.80;55.50;;;;;;5080501;28;20020;-83
2021/05/14 09:05:21;;;;;;;5.68;4.95;;;18.90;54.30;;;;;;5089771;28;20034;-75
2021/05/14 09:07:47;;;;;;;6.30;5.07;;;19.00;54.90;;;;;;5077591;28;20036;-75
2021/05/14 09:10:13;;;;;;;8.27;5.18;;;19.20;55.20;;;;;;5090039;28;20042;-75
2021/05/14 09:12:40;;;;;;;8.23;4.00;;;19.20;53.60;;;;;;5085989;28;20054;-76
2021/05/14 09:15:33;;;;;;;6.38;4.45;;;19.30;52.90;;;;;;5085535;28;20028;-75
2021/05/14 09:18:25;;;;;;;5.30;4.30;;;19.50;52.90;;;;;;5083948;28;20044;-75
2021/05/14 09:20:54;;;;;;;6.65;4.88;;;19.60;52.80;;;;;;5063410;28;20408;-75
2021/05/14 09:23:20;;;;;;;9.35;4.72;;;19.70;52.20;;;;;;5095536;28;20123;-75
2021/05/14 09:25:53;;;;;;;3.97;3.42;;;19.50;52.50;;;;;;5095700;28;20590;-75
2021/05/14 09:28:39;;;;;;;11.02;3.80;;;19.30;51.10;;;;;;5095281;28;20021;-75
2021/05/14 09:31:17;;;;;;;6.68;4.65;;;19.30;50.60;;;;;;5089900;28;20035;-75
2021/05/14 09:33:54;;;;;;;7.45;4.80;;;19.50;51.60;;;;;;5076885;28;20052;-74
2021/05/14 09:36:31;;;;;;;7.72;4.40;;;19.60;51.40;;;;;;5094938;28;20368;-75
2021/05/14 09:38:58;;;;;;;10.27;4.88;;;19.80;52.30;;;;;;5083415;28;20020;-74
2021/05/14 09:41:33;;;;;;;9.60;5.07;;;20.10;52.60;;;;;;5084797;28;20354;-74
2021/05/14 09:44:15;;;;;;;6.25;4.30;;;20.30;52.10;;;;;;5082884;28;20020;-75
2021/05/14 09:46:57;;;;;;;8.98;5.50;;;20.60;51.70;;;;;;5068295;28;20056;-74
2021/05/14 09:49:25;;;;;;;6.25;4.00;;;20.40;50.00;;;;;;5084409;28;20488;-74
2021/05/14 09:52:03;;;;;;;9.95;3.83;;;20.00;51.70;;;;;;5083928;28;20489;-75
2021/05/14 09:54:35;;;;;;;7.63;3.92;;;19.70;52.40;;;;;;5073177;28;20036;-74
2021/05/14 09:59:53;;;;;;;4.80;3.17;;;19.70;51.50;;;;;;5086026;28;20031;-74
2021/05/14 10:02:23;;;;;;;5.07;3.08;;;19.80;50.50;;;;;;5068515;28;20389;-74
2021/05/14 10:04:50;;;;;;;6.10;2.63;;;19.70;50.00;;;;;;5100321;28;20069;-74
2021/05/14 10:07:17;;;;;;;7.80;2.60;;;19.60;50.50;;;;;;5082220;28;20058;-74
2021/05/14 10:09:46;;;;;;;7.28;2.42;;;19.70;50.50;;;;;;5067667;28;20047;-74
2021/05/14 10:12:12;;;;;;;;;;;19.80;48.70;;;;;;5089579;28;20020;-74
2021/05/14 10:14:38;;;;;;;5.25;1.98;;;19.70;49.30;;;;;;5083596;28;19916;-75
2021/05/14 10:17:03;;;;;;;8.43;2.47;;;19.60;50.00;;;;;;5083094;28;20028;-74
2021/05/14 10:19:29;;;;;;;7.55;2.30;;;19.60;49.20;;;;;;5067293;28;20493;-75
2021/05/14 10:21:57;;;;;;;3.13;2.10;;;19.50;48.70;;;;;;5081903;28;20048;-74
2021/05/14 10:24:44;;;;;;;4.70;2.15;;;19.60;48.30;;;;;;5064774;28;20028;-74
2021/05/14 10:27:15;;;;;;;3.28;1.95;;;19.50;48.60;;;;;;5082750;28;20020;-74
2021/05/14 10:29:44;;;;;;;3.30;2.28;;;19.50;48.80;;;;;;5086007;28;20477;-73
2021/05/14 10:32:11;;;;;;;5.50;2.60;;;19.60;48.40;;;;;;5084786;28;20013;-74
2021/05/14 10:34:37;;;;;;;3.70;2.28;;;19.80;49.10;;;;;;5083986;28;20543;-74
2021/05/14 10:37:02;;;;;;;6.32;2.58;;;20.00;48.10;;;;;;5064807;28;20028;-75
2021/05/14 10:39:36;;;;;;;4.18;2.38;;;20.30;47.50;;;;;;5081047;28;20481;-74
2021/05/14 10:42:07;;;;;;;5.82;2.45;;;20.40;47.00;;;;;;5079728;28;20043;-74
2021/05/14 10:44:45;;;;;;;7.15;2.60;;;20.30;46.90;;;;;;5074009;28;20020;-74
2021/05/14 10:47:26;;;;;;;7.50;2.80;;;20.20;46.90;;;;;;5091743;28;20024;-75
2021/05/14 10:50:02;;;;;;;7.25;2.78;;;20.00;46.00;;;;;;5092845;28;20095;-74
2021/05/14 10:52:30;;;;;;;7.95;2.67;;;19.80;46.80;;;;;;5055704;28;20071;-74
2021/05/14 10:54:55;;;;;;;2.83;2.20;;;19.70;47.30;;;;;;5052245;28;20516;-74
2021/05/14 10:57:39;;;;;;;4.95;2.25;;;19.70;46.70;;;;;;5052723;28;20045;-74
2021/05/14 11:00:24;;;;;;;4.93;2.00;;;19.70;46.70;;;;;;5051109;28;20021;-74
2021/05/14 11:03:15;;;;;;;4.05;1.83;;;19.90;45.60;;;;;;5051620;28;20539;-74
2021/05/14 11:05:42;;;;;;;4.00;2.00;;;20.20;45.30;;;;;;5048069;28;20036;-75
2021/05/14 11:08:31;;;;;;;5.95;2.40;;;20.50;44.60;;;;;;5050440;28;20025;-74
2021/05/14 11:11:11;;;;;;;;;;;20.50;43.50;;;;;;5047460;28;20074;-75
2021/05/14 11:13:45;;;;;;;7.25;2.10;;;20.50;44.60;;;;;;5066380;28;19909;-74
2021/05/14 11:16:37;;;;;;;3.50;1.80;;;20.30;45.30;;;;;;5050007;28;20031;-75
2021/05/14 11:19:26;;;;;;;3.92;2.03;;;20.20;46.00;;;;;;5044633;28;20040;-74
2021/05/14 11:21:57;;;;;;;4.50;2.30;;;20.00;46.00;;;;;;5044766;28;20025;-75
2021/05/14 11:24:48;;;;;;;2.00;1.70;;;19.80;46.70;;;;;;5048839;28;20163;-75
2021/05/14 11:27:16;;;;;;;4.18;2.00;;;19.70;46.60;;;;;;5081237;28;20055;-74
2021/05/14 11:30:04;;;;;;;4.05;2.03;;;19.60;47.20;;;;;;5052747;28;20453;-74
2021/05/14 11:32:33;;;;;;;4.00;1.83;;;19.50;47.60;;;;;;5051703;28;20124;-74
2021/05/14 11:35:05;;;;;;;3.40;1.70;;;19.50;46.90;;;;;;5051128;28;20021;-74
2021/05/14 11:37:40;;;;;;;4.03;1.90;;;19.60;47.00;;;;;;5078572;28;20032;-74
2021/05/14 11:40:07;;;;;;;5.78;1.98;;;19.80;46.00;;;;;;5034777;28;20059;-74
2021/05/14 11:42:38;;;;;;;6.55;2.13;;;20.20;45.50;;;;;;5051137;28;20040;-74
2021/05/14 11:45:09;;;;;;;4.15;1.63;;;20.70;44.80;;;;;;5049074;28;20656;-75
2021/05/14 11:47:35;;;;;;;3.65;1.58;;;21.00;43.40;;;;;;5051336;28;20039;-75
2021/05/14 11:50:02;;;;;;;3.53;1.90;;;21.10;43.60;;;;;;5061290;28;20032;-74
2021/05/14 11:52:42;;;;;;;4.20;2.00;;;21.30;43.70;;;;;;5085921;28;20515;-74
2021/05/14 11:55:08;;;;;;;3.05;1.70;;;21.50;44.70;;;;;;5091974;28;20032;-74
2021/05/14 11:57:35;;;;;;;5.43;2.00;;;21.70;42.90;;;;;;5092910;28;20028;-75
2021/05/14 12:00:01;;;;;;;3.03;1.80;;;21.70;42.20;;;;;;5092639;28;20027;-75
2021/05/14 12:02:47;;;;;;;5.30;2.00;;;21.60;43.00;;;;;;5091667;28;20028;-74
2021/05/14 12:05:15;;;;;;;5.07;1.77;;;21.40;43.20;;;;;;5072782;28;20034;-75
2021/05/14 12:07:42;;;;;;;4.20;1.73;;;21.20;44.40;;;;;;5073230;28;20021;-74
2021/05/14 12:10:11;;;;;;;5.10;1.70;;;21.00;44.50;;;;;;5072806;28;20029;-74
2021/05/14 12:12:38;;;;;;;2.78;1.58;;;20.80;44.80;;;;;;5055949;28;20103;-74
2021/05/14 12:15:10;;;;;;;4.00;1.60;;;20.70;45.00;;;;;;5092167;28;20583;-75
2021/05/14 12:17:37;;;;;;;5.30;1.52;;;20.60;44.90;;;;;;5092383;28;20503;-74
2021/05/14 12:20:25;;;;;;;7.45;2.25;;;20.60;45.10;;;;;;5092514;28;20032;-74
2021/05/14 12:22:54;;;;;;;7.03;2.25;;;20.60;44.70;;;;;;5082888;28;20048;-74
2021/05/14 12:25:21;;;;;;;2.75;1.52;;;20.50;44.70;;;;;;5082764;28;20029;-74
2021/05/14 12:27:47;;;;;;;8.77;2.00;;;20.50;44.60;;;;;;5090836;28;20043;-74
2021/05/14 12:30:15;;;;;;;6.90;1.60;;;20.50;44.80;;;;;;5091608;28;20119;-74
2021/05/14 12:32:41;;;;;;;3.55;1.70;;;20.40;44.60;;;;;;5074374;28;20366;-74
2021/05/14 12:35:08;;;;;;;4.60;1.58;;;20.40;44.70;;;;;;5074108;28;20047;-74
2021/05/14 12:37:35;;;;;;;3.25;1.70;;;20.30;45.00;;;;;;5078966;28;20054;-74
2021/05/14 12:40:01;;;;;;;4.18;1.80;;;20.30;45.30;;;;;;5074655;28;20032;-74
2021/05/14 12:42:30;;;;;;;16.17;1.73;;;20.20;45.90;;;;;;5088653;28;20031;-74
2021/05/14 12:44:59;;;;;;;3.70;1.52;;;20.20;46.50;;;;;;5091939;28;20028;-74
2021/05/14 12:47:28;;;;;;;5.10;1.40;;;20.20;46.50;;;;;;5078582;28;20029;-74